Estancia La Primavera, Argentina
Current Conditions -  °F | °C
As of 10:00 AM on Wednesday 26 Nov 2014 (Local Time) from SAZN Reporting Station
Clear Clear  
Wind Chill: 20°   Ceiling: Unl
Heat Index: 20°   Visibility: 6mi
Dew Point:   Wind: 10mph
Humidity: 30%   Direction: 250°WSW
Pressure: 30"   Gusts: NA
Location:  38.48°S, 67.46°W
Report Text: SAZN 261300Z 25009KT CAVOK 20/02 Q1016
Loading
Personal Weather Stations






























Interactive Weather Map New forecast layout! Learn more

10-Day Weather Forecast

Advertisements
Track Severe Weather on mobile